sensor_id;sensor_type;location;lat;lon;timestamp;P1;durP1;ratioP1;P2;durP2;ratioP2
38611;SDS011;24368;52.156;20.788;2023-06-14T00:02:53;6.90;;;6.30;;
38611;SDS011;24368;52.156;20.788;2023-06-14T00:07:57;6.90;;;6.30;;
38611;SDS011;24368;52.156;20.788;2023-06-14T00:13:02;6.40;;;5.80;;
38611;SDS011;24368;52.156;20.788;2023-06-14T00:18:05;6.80;;;5.80;;
38611;SDS011;24368;52.156;20.788;2023-06-14T00:23:07;6.50;;;5.20;;
38611;SDS011;24368;52.156;20.788;2023-06-14T00:28:09;6.90;;;5.70;;
38611;SDS011;24368;52.156;20.788;2023-06-14T00:33:11;6.60;;;5.80;;
38611;SDS011;24368;52.156;20.788;2023-06-14T00:38:12;5.60;;;5.20;;
38611;SDS011;24368;52.156;20.788;2023-06-14T00:43:15;6.70;;;5.80;;
38611;SDS011;24368;52.156;20.788;2023-06-14T00:48:16;7.50;;;6.00;;
38611;SDS011;24368;52.156;20.788;2023-06-14T00:53:19;6.30;;;5.70;;
38611;SDS011;24368;52.156;20.788;2023-06-14T00:58:24;7.00;;;6.40;;
38611;SDS011;24368;52.156;20.788;2023-06-14T01:03:26;6.40;;;5.90;;
38611;SDS011;24368;52.156;20.788;2023-06-14T01:13:53;7.10;;;6.50;;
38611;SDS011;24368;52.156;20.788;2023-06-14T01:18:56;7.50;;;6.80;;
38611;SDS011;24368;52.156;20.788;2023-06-14T01:23:59;8.20;;;7.40;;
38611;SDS011;24368;52.156;20.788;2023-06-14T01:29:01;8.60;;;7.60;;
38611;SDS011;24368;52.156;20.788;2023-06-14T01:34:03;7.70;;;6.30;;
38611;SDS011;24368;52.156;20.788;2023-06-14T01:39:05;6.60;;;5.90;;
38611;SDS011;24368;52.156;20.788;2023-06-14T01:44:07;6.50;;;5.50;;
38611;SDS011;24368;52.156;20.788;2023-06-14T01:49:11;6.90;;;5.90;;
38611;SDS011;24368;52.156;20.788;2023-06-14T01:54:13;6.60;;;6.00;;
38611;SDS011;24368;52.156;20.788;2023-06-14T01:59:15;7.50;;;6.50;;
38611;SDS011;24368;52.156;20.788;2023-06-14T02:04:17;7.70;;;6.10;;
38611;SDS011;24368;52.156;20.788;2023-06-14T02:09:19;7.00;;;6.40;;
38611;SDS011;24368;52.156;20.788;2023-06-14T02:14:20;7.40;;;5.90;;
38611;SDS011;24368;52.156;20.788;2023-06-14T02:19:22;8.50;;;6.60;;
38611;SDS011;24368;52.156;20.788;2023-06-14T02:24:24;6.30;;;5.70;;
38611;SDS011;24368;52.156;20.788;2023-06-14T02:29:26;9.00;;;6.50;;
38611;SDS011;24368;52.156;20.788;2023-06-14T02:34:28;7.60;;;6.30;;
38611;SDS011;24368;52.156;20.788;2023-06-14T02:39:29;6.40;;;5.80;;
38611;SDS011;24368;52.156;20.788;2023-06-14T02:44:31;6.50;;;5.90;;
38611;SDS011;24368;52.156;20.788;2023-06-14T02:49:34;7.60;;;6.00;;
38611;SDS011;24368;52.156;20.788;2023-06-14T02:54:35;7.40;;;6.40;;
38611;SDS011;24368;52.156;20.788;2023-06-14T02:59:37;7.80;;;6.60;;
38611;SDS011;24368;52.156;20.788;2023-06-14T03:04:39;7.50;;;6.80;;
38611;SDS011;24368;52.156;20.788;2023-06-14T03:09:42;9.30;;;6.00;;
38611;SDS011;24368;52.156;20.788;2023-06-14T03:14:44;6.80;;;6.10;;
38611;SDS011;24368;52.156;20.788;2023-06-14T03:19:48;6.40;;;5.90;;
38611;SDS011;24368;52.156;20.788;2023-06-14T03:24:49;6.90;;;6.30;;
38611;SDS011;24368;52.156;20.788;2023-06-14T03:29:53;6.70;;;5.90;;
38611;SDS011;24368;52.156;20.788;2023-06-14T03:34:54;6.50;;;5.60;;
38611;SDS011;24368;52.156;20.788;2023-06-14T03:39:56;6.10;;;5.50;;
38611;SDS011;24368;52.156;20.788;2023-06-14T03:44:58;6.10;;;5.20;;
38611;SDS011;24368;52.156;20.788;2023-06-14T03:50:01;6.60;;;5.30;;
38611;SDS011;24368;52.156;20.788;2023-06-14T03:55:07;7.80;;;5.50;;
38611;SDS011;24368;52.156;20.788;2023-06-14T04:00:09;7.40;;;6.10;;
38611;SDS011;24368;52.156;20.788;2023-06-14T04:05:13;7.30;;;6.00;;
38611;SDS011;24368;52.156;20.788;2023-06-14T04:10:17;6.50;;;5.90;;
38611;SDS011;24368;52.156;20.788;2023-06-14T04:15:21;6.20;;;5.60;;
38611;SDS011;24368;52.156;20.788;2023-06-14T04:20:23;6.70;;;6.10;;
38611;SDS011;24368;52.156;20.788;2023-06-14T04:25:27;6.10;;;5.50;;
38611;SDS011;24368;52.156;20.788;2023-06-14T04:30:32;7.60;;;6.70;;
38611;SDS011;24368;52.156;20.788;2023-06-14T04:35:34;7.30;;;6.50;;
38611;SDS011;24368;52.156;20.788;2023-06-14T04:40:37;6.40;;;5.80;;
38611;SDS011;24368;52.156;20.788;2023-06-14T04:45:44;7.30;;;6.20;;
38611;SDS011;24368;52.156;20.788;2023-06-14T04:50:53;8.30;;;6.20;;
38611;SDS011;24368;52.156;20.788;2023-06-14T04:56:03;7.20;;;6.50;;
38611;SDS011;24368;52.156;20.788;2023-06-14T05:01:06;9.40;;;7.00;;
38611;SDS011;24368;52.156;20.788;2023-06-14T05:06:10;8.40;;;7.00;;
38611;SDS011;24368;52.156;20.788;2023-06-14T05:11:13;6.80;;;6.20;;
38611;SDS011;24368;52.156;20.788;2023-06-14T05:16:16;10.30;;;6.50;;
38611;SDS011;24368;52.156;20.788;2023-06-14T05:21:22;7.40;;;6.10;;
38611;SDS011;24368;52.156;20.788;2023-06-14T05:26:24;9.30;;;7.70;;
38611;SDS011;24368;52.156;20.788;2023-06-14T05:31:32;6.70;;;5.90;;
38611;SDS011;24368;52.156;20.788;2023-06-14T05:36:34;8.50;;;7.00;;
38611;SDS011;24368;52.156;20.788;2023-06-14T05:41:38;7.10;;;6.00;;
38611;SDS011;24368;52.156;20.788;2023-06-14T05:46:40;11.60;;;7.40;;
38611;SDS011;24368;52.156;20.788;2023-06-14T05:51:42;8.40;;;6.90;;
38611;SDS011;24368;52.156;20.788;2023-06-14T05:56:44;7.90;;;7.10;;
38611;SDS011;24368;52.156;20.788;2023-06-14T06:01:45;8.80;;;7.70;;
38611;SDS011;24368;52.156;20.788;2023-06-14T06:06:47;8.60;;;7.80;;
38611;SDS011;24368;52.156;20.788;2023-06-14T06:11:49;9.20;;;7.20;;
38611;SDS011;24368;52.156;20.788;2023-06-14T06:16:51;9.50;;;7.90;;
38611;SDS011;24368;52.156;20.788;2023-06-14T06:21:54;7.50;;;6.20;;
38611;SDS011;24368;52.156;20.788;2023-06-14T06:26:55;7.60;;;6.90;;
38611;SDS011;24368;52.156;20.788;2023-06-14T06:31:57;7.20;;;6.60;;
38611;SDS011;24368;52.156;20.788;2023-06-14T06:36:59;6.70;;;6.00;;
38611;SDS011;24368;52.156;20.788;2023-06-14T06:42:02;6.70;;;6.10;;
38611;SDS011;24368;52.156;20.788;2023-06-14T06:47:04;8.20;;;6.30;;
38611;SDS011;24368;52.156;20.788;2023-06-14T06:52:06;7.80;;;5.60;;
38611;SDS011;24368;52.156;20.788;2023-06-14T06:57:08;6.90;;;5.30;;
38611;SDS011;24368;52.156;20.788;2023-06-14T07:02:12;7.30;;;5.60;;
38611;SDS011;24368;52.156;20.788;2023-06-14T07:07:13;7.80;;;5.60;;
38611;SDS011;24368;52.156;20.788;2023-06-14T07:12:15;7.20;;;5.20;;
38611;SDS011;24368;52.156;20.788;2023-06-14T07:17:17;7.30;;;5.60;;
38611;SDS011;24368;52.156;20.788;2023-06-14T07:22:19;5.20;;;4.80;;
38611;SDS011;24368;52.156;20.788;2023-06-14T07:27:21;5.50;;;5.00;;
38611;SDS011;24368;52.156;20.788;2023-06-14T07:32:23;5.90;;;5.00;;
38611;SDS011;24368;52.156;20.788;2023-06-14T07:37:25;7.10;;;4.70;;
38611;SDS011;24368;52.156;20.788;2023-06-14T07:42:27;4.10;;;3.70;;
38611;SDS011;24368;52.156;20.788;2023-06-14T07:47:28;6.90;;;3.50;;
38611;SDS011;24368;52.156;20.788;2023-06-14T07:52:30;3.90;;;3.30;;
38611;SDS011;24368;52.156;20.788;2023-06-14T07:57:32;4.00;;;3.30;;
38611;SDS011;24368;52.156;20.788;2023-06-14T08:02:34;4.10;;;3.60;;
38611;SDS011;24368;52.156;20.788;2023-06-14T08:07:35;5.20;;;4.20;;
38611;SDS011;24368;52.156;20.788;2023-06-14T08:12:37;6.00;;;4.00;;
38611;SDS011;24368;52.156;20.788;2023-06-14T08:17:39;5.90;;;4.30;;
38611;SDS011;24368;52.156;20.788;2023-06-14T08:22:42;4.90;;;4.50;;
38611;SDS011;24368;52.156;20.788;2023-06-14T08:27:44;4.80;;;4.10;;
38611;SDS011;24368;52.156;20.788;2023-06-14T08:32:46;4.60;;;4.10;;
38611;SDS011;24368;52.156;20.788;2023-06-14T08:37:48;6.90;;;4.10;;
38611;SDS011;24368;52.156;20.788;2023-06-14T08:42:51;4.70;;;3.90;;
38611;SDS011;24368;52.156;20.788;2023-06-14T08:47:54;4.20;;;3.60;;
38611;SDS011;24368;52.156;20.788;2023-06-14T08:53:01;6.40;;;4.30;;
38611;SDS011;24368;52.156;20.788;2023-06-14T08:58:04;5.20;;;3.90;;
38611;SDS011;24368;52.156;20.788;2023-06-14T09:03:06;5.40;;;3.20;;
38611;SDS011;24368;52.156;20.788;2023-06-14T09:08:14;5.00;;;4.50;;
38611;SDS011;24368;52.156;20.788;2023-06-14T09:13:17;4.40;;;3.70;;
38611;SDS011;24368;52.156;20.788;2023-06-14T09:18:19;4.20;;;3.80;;
38611;SDS011;24368;52.156;20.788;2023-06-14T09:23:21;5.20;;;4.70;;
38611;SDS011;24368;52.156;20.788;2023-06-14T09:28:26;3.70;;;3.40;;
38611;SDS011;24368;52.156;20.788;2023-06-14T09:33:30;4.30;;;4.00;;
38611;SDS011;24368;52.156;20.788;2023-06-14T09:38:33;6.60;;;3.70;;
38611;SDS011;24368;52.156;20.788;2023-06-14T09:43:36;6.90;;;6.20;;
38611;SDS011;24368;52.156;20.788;2023-06-14T09:48:39;10.50;;;5.60;;
38611;SDS011;24368;52.156;20.788;2023-06-14T09:58:47;11.10;;;5.10;;
38611;SDS011;24368;52.156;20.788;2023-06-14T10:03:55;8.30;;;5.70;;
38611;SDS011;24368;52.156;20.788;2023-06-14T10:09:04;7.40;;;5.30;;
38611;SDS011;24368;52.156;20.788;2023-06-14T10:24:47;6.20;;;5.60;;
38611;SDS011;24368;52.156;20.788;2023-06-14T10:35:06;7.00;;;6.00;;
38611;SDS011;24368;52.156;20.788;2023-06-14T10:40:08;6.00;;;4.30;;
38611;SDS011;24368;52.156;20.788;2023-06-14T10:45:30;5.00;;;4.60;;
38611;SDS011;24368;52.156;20.788;2023-06-14T10:50:32;8.20;;;4.00;;
38611;SDS011;24368;52.156;20.788;2023-06-14T10:55:35;5.90;;;4.00;;
38611;SDS011;24368;52.156;20.788;2023-06-14T11:00:37;6.10;;;3.50;;
38611;SDS011;24368;52.156;20.788;2023-06-14T11:05:56;6.50;;;4.10;;
38611;SDS011;24368;52.156;20.788;2023-06-14T11:11:00;4.50;;;4.00;;
38611;SDS011;24368;52.156;20.788;2023-06-14T11:16:14;10.90;;;9.90;;
38611;SDS011;24368;52.156;20.788;2023-06-14T11:21:17;5.10;;;4.60;;
38611;SDS011;24368;52.156;20.788;2023-06-14T11:26:26;4.30;;;3.90;;
38611;SDS011;24368;52.156;20.788;2023-06-14T11:31:29;5.90;;;3.60;;
38611;SDS011;24368;52.156;20.788;2023-06-14T11:36:33;4.40;;;3.80;;
38611;SDS011;24368;52.156;20.788;2023-06-14T11:41:37;9.00;;;4.00;;
38611;SDS011;24368;52.156;20.788;2023-06-14T11:46:41;7.50;;;4.60;;
38611;SDS011;24368;52.156;20.788;2023-06-14T11:51:43;4.00;;;3.60;;
38611;SDS011;24368;52.156;20.788;2023-06-14T11:56:45;3.40;;;3.00;;
38611;SDS011;24368;52.156;20.788;2023-06-14T12:01:47;3.90;;;2.60;;
38611;SDS011;24368;52.156;20.788;2023-06-14T12:06:49;5.20;;;3.60;;
38611;SDS011;24368;52.156;20.788;2023-06-14T12:12:03;10.20;;;9.10;;
38611;SDS011;24368;52.156;20.788;2023-06-14T12:17:06;6.10;;;4.80;;
38611;SDS011;24368;52.156;20.788;2023-06-14T12:22:15;6.40;;;5.50;;
38611;SDS011;24368;52.156;20.788;2023-06-14T12:27:17;6.20;;;4.90;;
38611;SDS011;24368;52.156;20.788;2023-06-14T12:32:25;6.10;;;5.30;;
38611;SDS011;24368;52.156;20.788;2023-06-14T12:37:27;9.40;;;4.90;;
38611;SDS011;24368;52.156;20.788;2023-06-14T12:42:28;5.30;;;4.20;;
38611;SDS011;24368;52.156;20.788;2023-06-14T12:47:30;6.90;;;4.50;;
38611;SDS011;24368;52.156;20.788;2023-06-14T12:52:32;4.80;;;3.30;;
38611;SDS011;24368;52.156;20.788;2023-06-14T13:02:39;7.90;;;4.20;;
38611;SDS011;24368;52.156;20.788;2023-06-14T13:07:41;4.70;;;4.20;;
38611;SDS011;24368;52.156;20.788;2023-06-14T13:12:43;4.70;;;4.30;;
38611;SDS011;24368;52.156;20.788;2023-06-14T13:17:45;4.90;;;4.30;;
38611;SDS011;24368;52.156;20.788;2023-06-14T13:22:50;3.80;;;3.50;;
38611;SDS011;24368;52.156;20.788;2023-06-14T13:27:51;3.40;;;2.90;;
38611;SDS011;24368;52.156;20.788;2023-06-14T13:32:53;5.00;;;3.70;;
38611;SDS011;24368;52.156;20.788;2023-06-14T13:37:57;4.90;;;4.00;;
38611;SDS011;24368;52.156;20.788;2023-06-14T13:42:59;5.80;;;5.10;;
38611;SDS011;24368;52.156;20.788;2023-06-14T13:48:01;6.40;;;3.60;;
38611;SDS011;24368;52.156;20.788;2023-06-14T13:53:03;2.70;;;2.40;;
38611;SDS011;24368;52.156;20.788;2023-06-14T13:58:04;3.30;;;2.80;;
38611;SDS011;24368;52.156;20.788;2023-06-14T14:03:07;3.40;;;2.60;;
38611;SDS011;24368;52.156;20.788;2023-06-14T14:08:10;3.30;;;2.70;;
38611;SDS011;24368;52.156;20.788;2023-06-14T14:13:12;3.40;;;3.10;;
38611;SDS011;24368;52.156;20.788;2023-06-14T14:18:14;3.00;;;2.20;;
38611;SDS011;24368;52.156;20.788;2023-06-14T14:23:16;3.70;;;2.80;;
38611;SDS011;24368;52.156;20.788;2023-06-14T14:28:19;3.80;;;2.50;;
38611;SDS011;24368;52.156;20.788;2023-06-14T14:33:22;3.50;;;2.80;;
38611;SDS011;24368;52.156;20.788;2023-06-14T14:38:24;3.90;;;3.50;;
38611;SDS011;24368;52.156;20.788;2023-06-14T14:43:26;3.20;;;3.00;;
38611;SDS011;24368;52.156;20.788;2023-06-14T14:48:28;3.70;;;3.20;;
38611;SDS011;24368;52.156;20.788;2023-06-14T14:53:30;3.30;;;2.80;;
38611;SDS011;24368;52.156;20.788;2023-06-14T14:58:31;5.50;;;3.10;;
38611;SDS011;24368;52.156;20.788;2023-06-14T15:03:34;5.10;;;4.60;;
38611;SDS011;24368;52.156;20.788;2023-06-14T15:08:36;4.20;;;2.70;;
38611;SDS011;24368;52.156;20.788;2023-06-14T15:13:37;3.40;;;2.80;;
38611;SDS011;24368;52.156;20.788;2023-06-14T15:18:39;4.20;;;3.40;;
38611;SDS011;24368;52.156;20.788;2023-06-14T15:23:41;2.80;;;2.50;;
38611;SDS011;24368;52.156;20.788;2023-06-14T15:28:43;5.10;;;4.20;;
38611;SDS011;24368;52.156;20.788;2023-06-14T15:33:45;5.90;;;5.00;;
38611;SDS011;24368;52.156;20.788;2023-06-14T15:38:47;6.30;;;5.70;;
38611;SDS011;24368;52.156;20.788;2023-06-14T15:43:48;3.90;;;3.50;;
38611;SDS011;24368;52.156;20.788;2023-06-14T15:48:50;5.10;;;4.60;;
38611;SDS011;24368;52.156;20.788;2023-06-14T15:53:52;7.70;;;6.80;;
38611;SDS011;24368;52.156;20.788;2023-06-14T15:58:55;6.40;;;5.30;;
38611;SDS011;24368;52.156;20.788;2023-06-14T16:03:58;7.80;;;7.20;;
38611;SDS011;24368;52.156;20.788;2023-06-14T16:08:59;7.90;;;7.20;;
38611;SDS011;24368;52.156;20.788;2023-06-14T16:14:01;4.90;;;3.50;;
38611;SDS011;24368;52.156;20.788;2023-06-14T16:19:03;3.50;;;3.10;;
38611;SDS011;24368;52.156;20.788;2023-06-14T16:24:06;3.20;;;3.00;;
38611;SDS011;24368;52.156;20.788;2023-06-14T16:29:09;4.40;;;3.80;;
38611;SDS011;24368;52.156;20.788;2023-06-14T16:34:11;3.50;;;3.00;;
38611;SDS011;24368;52.156;20.788;2023-06-14T16:39:13;4.00;;;3.20;;
38611;SDS011;24368;52.156;20.788;2023-06-14T16:44:14;3.40;;;3.20;;
38611;SDS011;24368;52.156;20.788;2023-06-14T16:49:17;4.50;;;3.40;;
38611;SDS011;24368;52.156;20.788;2023-06-14T16:54:19;3.40;;;3.10;;
38611;SDS011;24368;52.156;20.788;2023-06-14T16:59:21;3.30;;;3.00;;
38611;SDS011;24368;52.156;20.788;2023-06-14T17:04:30;5.10;;;3.30;;
38611;SDS011;24368;52.156;20.788;2023-06-14T17:09:32;4.50;;;3.30;;
38611;SDS011;24368;52.156;20.788;2023-06-14T17:14:34;3.70;;;3.20;;
38611;SDS011;24368;52.156;20.788;2023-06-14T17:19:36;4.30;;;3.00;;
38611;SDS011;24368;52.156;20.788;2023-06-14T17:24:38;3.60;;;3.00;;
38611;SDS011;24368;52.156;20.788;2023-06-14T17:29:40;3.30;;;2.80;;
38611;SDS011;24368;52.156;20.788;2023-06-14T17:34:42;3.20;;;2.90;;
38611;SDS011;24368;52.156;20.788;2023-06-14T17:39:44;4.90;;;3.60;;
38611;SDS011;24368;52.156;20.788;2023-06-14T17:44:46;4.30;;;3.90;;
38611;SDS011;24368;52.156;20.788;2023-06-14T17:54:55;4.00;;;3.60;;
38611;SDS011;24368;52.156;20.788;2023-06-14T17:59:57;6.90;;;4.30;;
38611;SDS011;24368;52.156;20.788;2023-06-14T18:04:59;6.40;;;4.90;;
38611;SDS011;24368;52.156;20.788;2023-06-14T18:10:01;6.30;;;5.40;;
38611;SDS011;24368;52.156;20.788;2023-06-14T18:15:02;5.90;;;5.00;;
38611;SDS011;24368;52.156;20.788;2023-06-14T18:20:05;6.00;;;5.50;;
38611;SDS011;24368;52.156;20.788;2023-06-14T18:25:07;8.30;;;7.50;;
38611;SDS011;24368;52.156;20.788;2023-06-14T18:30:09;7.50;;;6.80;;
38611;SDS011;24368;52.156;20.788;2023-06-14T18:35:15;6.90;;;6.20;;
38611;SDS011;24368;52.156;20.788;2023-06-14T18:40:17;7.60;;;6.70;;
38611;SDS011;24368;52.156;20.788;2023-06-14T18:45:19;9.90;;;8.70;;
38611;SDS011;24368;52.156;20.788;2023-06-14T18:50:21;7.40;;;6.60;;
38611;SDS011;24368;52.156;20.788;2023-06-14T18:55:23;4.80;;;4.40;;
38611;SDS011;24368;52.156;20.788;2023-06-14T19:00:25;5.30;;;4.80;;
38611;SDS011;24368;52.156;20.788;2023-06-14T19:05:27;5.30;;;4.80;;
38611;SDS011;24368;52.156;20.788;2023-06-14T19:10:29;4.40;;;4.00;;
38611;SDS011;24368;52.156;20.788;2023-06-14T19:15:31;6.00;;;4.30;;
38611;SDS011;24368;52.156;20.788;2023-06-14T19:20:36;5.90;;;4.60;;
38611;SDS011;24368;52.156;20.788;2023-06-14T19:25:39;5.50;;;4.90;;
38611;SDS011;24368;52.156;20.788;2023-06-14T19:30:41;6.80;;;5.40;;
38611;SDS011;24368;52.156;20.788;2023-06-14T19:35:45;5.40;;;4.90;;
38611;SDS011;24368;52.156;20.788;2023-06-14T19:40:47;6.30;;;5.00;;
38611;SDS011;24368;52.156;20.788;2023-06-14T19:45:49;6.40;;;5.10;;
38611;SDS011;24368;52.156;20.788;2023-06-14T19:50:51;6.40;;;5.20;;
38611;SDS011;24368;52.156;20.788;2023-06-14T19:55:53;5.50;;;5.00;;
38611;SDS011;24368;52.156;20.788;2023-06-14T20:00:56;5.50;;;5.00;;
38611;SDS011;24368;52.156;20.788;2023-06-14T20:05:58;5.60;;;4.50;;
38611;SDS011;24368;52.156;20.788;2023-06-14T20:10:59;5.70;;;5.20;;
38611;SDS011;24368;52.156;20.788;2023-06-14T20:16:01;6.90;;;5.60;;
38611;SDS011;24368;52.156;20.788;2023-06-14T20:21:04;5.90;;;5.40;;
38611;SDS011;24368;52.156;20.788;2023-06-14T20:26:06;7.30;;;5.60;;
38611;SDS011;24368;52.156;20.788;2023-06-14T20:31:09;8.30;;;6.50;;
38611;SDS011;24368;52.156;20.788;2023-06-14T20:36:12;7.50;;;6.70;;
38611;SDS011;24368;52.156;20.788;2023-06-14T20:41:14;7.60;;;6.90;;
38611;SDS011;24368;52.156;20.788;2023-06-14T20:46:16;7.60;;;7.00;;
38611;SDS011;24368;52.156;20.788;2023-06-14T20:51:18;8.10;;;7.30;;
38611;SDS011;24368;52.156;20.788;2023-06-14T20:56:20;8.10;;;7.10;;
38611;SDS011;24368;52.156;20.788;2023-06-14T21:01:23;8.00;;;7.10;;
38611;SDS011;24368;52.156;20.788;2023-06-14T21:06:34;9.00;;;6.90;;
38611;SDS011;24368;52.156;20.788;2023-06-14T21:11:38;8.40;;;7.60;;
38611;SDS011;24368;52.156;20.788;2023-06-14T21:16:39;8.70;;;7.80;;
38611;SDS011;24368;52.156;20.788;2023-06-14T21:21:41;8.80;;;8.00;;
38611;SDS011;24368;52.156;20.788;2023-06-14T21:26:43;9.50;;;8.50;;
38611;SDS011;24368;52.156;20.788;2023-06-14T21:31:46;8.20;;;7.50;;
38611;SDS011;24368;52.156;20.788;2023-06-14T21:36:48;10.60;;;8.30;;
38611;SDS011;24368;52.156;20.788;2023-06-14T21:41:53;8.40;;;7.70;;
38611;SDS011;24368;52.156;20.788;2023-06-14T21:46:56;9.50;;;8.50;;
38611;SDS011;24368;52.156;20.788;2023-06-14T21:51:57;10.20;;;8.20;;
38611;SDS011;24368;52.156;20.788;2023-06-14T21:56:59;9.70;;;8.60;;
38611;SDS011;24368;52.156;20.788;2023-06-14T22:02:01;10.40;;;9.50;;
38611;SDS011;24368;52.156;20.788;2023-06-14T22:07:03;8.70;;;7.90;;
38611;SDS011;24368;52.156;20.788;2023-06-14T22:12:05;9.70;;;8.70;;
38611;SDS011;24368;52.156;20.788;2023-06-14T22:17:08;9.00;;;8.30;;
38611;SDS011;24368;52.156;20.788;2023-06-14T22:22:10;11.50;;;10.50;;
38611;SDS011;24368;52.156;20.788;2023-06-14T22:27:12;9.70;;;8.80;;
38611;SDS011;24368;52.156;20.788;2023-06-14T22:32:14;9.70;;;8.80;;
38611;SDS011;24368;52.156;20.788;2023-06-14T22:37:16;10.10;;;9.10;;
38611;SDS011;24368;52.156;20.788;2023-06-14T22:42:19;9.40;;;8.60;;
38611;SDS011;24368;52.156;20.788;2023-06-14T22:47:21;8.80;;;7.80;;
38611;SDS011;24368;52.156;20.788;2023-06-14T22:52:23;8.60;;;7.90;;
38611;SDS011;24368;52.156;20.788;2023-06-14T22:57:28;8.90;;;8.00;;
38611;SDS011;24368;52.156;20.788;2023-06-14T23:02:31;8.40;;;7.70;;
38611;SDS011;24368;52.156;20.788;2023-06-14T23:07:32;8.20;;;7.40;;
38611;SDS011;24368;52.156;20.788;2023-06-14T23:12:35;8.30;;;7.50;;
38611;SDS011;24368;52.156;20.788;2023-06-14T23:17:37;8.60;;;7.80;;
38611;SDS011;24368;52.156;20.788;2023-06-14T23:22:41;7.50;;;6.80;;
38611;SDS011;24368;52.156;20.788;2023-06-14T23:27:44;7.60;;;6.90;;
38611;SDS011;24368;52.156;20.788;2023-06-14T23:32:46;8.10;;;7.00;;
38611;SDS011;24368;52.156;20.788;2023-06-14T23:37:51;7.70;;;7.00;;
38611;SDS011;24368;52.156;20.788;2023-06-14T23:42:55;8.20;;;7.50;;
38611;SDS011;24368;52.156;20.788;2023-06-14T23:47:57;8.40;;;7.60;;
38611;SDS011;24368;52.156;20.788;2023-06-14T23:52:59;7.90;;;7.20;;
38611;SDS011;24368;52.156;20.788;2023-06-14T23:58:01;8.20;;;7.00;;
